aviador You're here:

KCGS Decoded Metar

COLLEGE PARK in MD, USA
Report Time2017-08-16 19:08:00
UTC Time2017-08-16 19:34:05
Flight Rules vfr VFR
Wind340° at 06 kt
W.Decomp.*RWY 33: 5.6 kt HW 2.2 kt RCW
W.Rank340° ranks 8
Current wind is above 340° avg. (5.8)
Visibility9999 m
Phenomena:N/A
Clouds:Broken 100 Hf
Expected CloudBase > 4,000 ft AGL from Temp-Dew spread
Ceiling10,000 ft
Temp30°C (ISA +15)
Dew Point20°C (55% RH)
Heat Index31.9°C
QNH1015 hPa
Density Alt2,021 ft
Elevation49 ft
Report Wrong Elevation
Raw Report
KCGS 161908Z AUTO 34006KT 10SM BKN100 30/20 A2998 RMK AO1
T03020195=

Extra information for KCGS:More info

Metar Taf Metar & Taf Last 4 Metars F.Rules Stats Wind Profile Meteogram Temp Stats Airport Information Weather charts Add Link Nearby VenuesMetar ALERT Operation Metar Decoded Social comments

AIRNAV info for KCGS